Latest Weather Observations for Cape Willoughby

IDS60801

Issued at 10:01 am CST Monday 21 August 2017 (issued every 30 minutes, with the page automatically refreshed every 10 minutes)

About weather observations | Map of weather stations | Latest weather observations for SA | Other Formats
Station Details ID: 022803 Name: CAPE WILLOUGHBY Lat: -35.84 Lon: 138.13 Height: 55.0 m
Data from the previous 72 hours. | See also: Recent months at Cape Willoughby
Date/Time
CST
Temp
°C
App
Temp
°C
Dew
Point
°C
Rel
Hum
%
Delta-T
°C
Wind Press
QNH
hPa
Press
MSL
hPa
Rain since
9am
mm
Dir  Spd
km/h
Gust
km/h
Spd
kts
Gust
kts
21/10:00am 10.5 7.5 7.6 82 1.4 ESE 13 22 7 12 1009.6 1009.6 0.0
21/09:30am 10.5 7.4 7.2 80 1.6 ESE 13 20 7 11 1009.2 1009.2 0.0
21/09:00am 10.3 7.2 7.4 82 1.4 ENE 13 17 7 9 1008.9 1008.9 7.2
21/08:30am 10.0 6.9 7.3 83 1.3 ENE 13 17 7 9 1008.7 1008.7 7.2
21/08:00am 10.1 7.1 7.5 84 1.2 ENE 13 19 7 10 1008.3 1008.3 7.2
21/07:30am 10.0 5.8 7.4 84 1.2 NNE 19 24 10 13 1007.6 1007.6 7.2
21/07:00am 9.9 4.7 7.3 84 1.2 NNE 24 32 13 17 1007.0 1007.0 7.2
21/06:30am 9.7 4.1 7.1 84 1.2 N 26 33 14 18 1006.6 1006.6 7.2
21/06:00am 9.5 3.8 6.9 84 1.2 N 26 33 14 18 1006.5 1006.5 7.2
21/05:30am 10.1 2.8 7.2 82 1.4 N 35 41 19 22 1006.2 1006.2 7.2
21/05:00am 9.9 0.5 7.2 83 1.3 N 46 57 25 31 1006.2 1006.2 7.2
21/04:30am 10.0 0.3 7.4 84 1.2 N 48 61 26 33 1005.8 1005.8 7.2
21/04:00am 10.2 0.1 7.4 83 1.3 N 50 57 27 31 1005.8 1005.8 7.2
21/03:30am 10.3 -0.2 7.4 82 1.4 N 52 63 28 34 1006.1 1006.1 6.6
21/03:00am 10.9 -0.1 6.8 76 2.0 N 54 63 29 34 1006.4 1006.4 6.6
21/02:30am 11.3 0.5 6.2 71 2.4 N 52 61 28 33 1006.7 1006.7 6.6
21/02:00am 11.3 2.0 6.0 70 2.5 N 44 56 24 30 1007.2 1007.2 6.6
21/01:30am 11.4 2.7 6.1 70 2.5 N 41 52 22 28 1007.8 1007.8 6.6
21/01:00am 11.0 2.8 6.4 73 2.2 N 39 48 21 26 1008.1 1008.1 6.6
21/12:30am 11.3 2.8 6.8 74 2.1 N 41 52 22 28 1008.3 1008.3 6.6
21/12:00am 10.7 2.5 6.5 75 2.0 NNE 39 63 21 34 1008.9 1008.9 6.6
 
Date/Time
CST
Temp
°C
App
Temp
°C
Dew
Point
°C
Rel
Hum
%
Delta-T
°C
Wind Press
QNH
hPa
Press
MSL
hPa
Rain since
9am
mm
Dir  Spd
km/h
Gust
km/h
Spd
kts
Gust
kts
20/11:58pm 10.4 2.6 6.7 78 1.7 NNE 37 61 20 33 1008.9 1008.9 6.6
20/11:30pm 10.2 2.1 6.9 80 1.6 NNE 39 54 21 29 1009.5 1009.5 6.6
20/11:00pm 10.3 3.0 7.4 82 1.4 N 35 46 19 25 1010.0 1010.0 6.6
20/10:30pm 10.0 2.0 7.4 84 1.2 N 39 44 21 24 1010.7 1010.7 6.6
20/10:00pm 9.3 0.8 7.1 86 1.0 N 41 48 22 26 1011.5 1011.5 6.6
20/09:30pm 9.2 2.0 7.5 89 0.8 NNE 35 43 19 23 1012.1 1012.1 6.4
20/09:00pm 9.0 1.7 7.3 89 0.8 NNE 35 43 19 23 1012.5 1012.5 5.8
20/08:30pm 9.0 0.2 7.1 88 0.9 NNE 43 52 23 28 1012.9 1012.9 5.4
20/08:00pm 9.1 0.3 7.2 88 0.9 NNE 43 50 23 27 1013.1 1013.1 5.0
20/07:30pm 8.9 1.2 7.2 89 0.8 NNE 37 48 20 26 1013.3 1013.3 4.8
20/07:00pm 9.0 0.9 7.1 88 0.9 NNE 39 46 21 25 1013.7 1013.7 4.0
20/06:30pm 9.4 0.0 7.2 86 1.0 N 46 56 25 30 1013.6 1013.6 3.0
20/06:00pm 9.6 -1.1 7.9 89 0.8 N 54 63 29 34 1013.5 1013.5 2.0
20/05:30pm 10.3 1.5 7.2 81 1.5 N 43 50 23 27 1014.2 1014.2 0.6
20/05:08pm 11.5 3.1 5.8 68 2.7 N 39 57 21 31 1014.0 1014.0 0.2
20/05:00pm 11.8 4.2 5.9 67 2.8 NNE 35 41 19 22 1014.1 1014.1 0.2
20/04:30pm 11.2 3.2 5.5 68 2.6 N 37 46 20 25 1014.3 1014.3 0.2
20/04:00pm 11.4 2.8 6.3 71 2.4 N 41 46 22 25 1014.8 1014.8 0.0
20/03:30pm 12.3 5.4 4.8 60 3.4 N 30 35 16 19 1015.5 1015.6 0.0
20/03:00pm 12.7 5.2 4.7 58 3.7 N 33 41 18 22 1015.3 1015.3 0.0
20/02:30pm 12.7 5.5 5.1 60 3.5 N 32 39 17 21 1015.5 1015.6 0.0
20/02:00pm 13.0 4.4 4.7 57 3.8 N 39 46 21 25 1016.1 1016.2 0.0
20/01:30pm 13.2 5.0 4.6 56 4.0 N 37 44 20 24 1016.8 1016.9 0.0
20/01:00pm 13.4 5.6 5.1 57 3.9 NNE 35 43 19 23 1016.7 1016.8 0.0
20/12:30pm 13.1 6.4 5.5 60 3.6 NNE 30 39 16 21 1017.8 1017.9 0.0
20/12:00pm 13.1 6.6 4.8 57 3.8 NNE 28 33 15 18 1018.8 1018.9 0.0
20/11:30am 13.7 8.7 6.3 61 3.5 NNE 22 30 12 16 1019.7 1019.8 0.0
20/11:00am 13.0 8.2 5.7 61 3.4 NNE 20 26 11 14 1020.5 1020.5 0.0
20/10:30am 12.5 6.9 5.2 61 3.4 NNE 24 30 13 16 1021.2 1021.2 0.0
20/10:00am 11.6 5.6 5.3 65 2.9 NE 26 33 14 18 1021.5 1021.5 0.0
20/09:30am 11.4 5.5 5.7 68 2.6 NE 26 32 14 17 1022.1 1022.1 0.0
20/09:00am 11.1 5.9 5.4 68 2.6 NE 22 28 12 15 1022.8 1022.8 0.0
20/08:30am 11.0 5.5 4.0 62 3.1 NE 22 28 12 15 1023.6 1023.6 0.0
20/08:00am 10.9 4.7 4.4 64 2.9 NNE 26 30 14 16 1023.5 1023.5 0.0
20/07:30am 10.8 4.2 4.0 63 3.0 NNE 28 33 15 18 1023.4 1023.4 0.0
20/07:00am 10.7 4.1 4.0 63 3.0 NE 28 32 15 17 1023.3 1023.3 0.0
20/06:30am 10.6 4.5 4.7 67 2.6 NE 26 32 14 17 1023.4 1023.4 0.0
20/06:00am 10.4 3.2 5.0 69 2.4 NE 32 37 17 20 1023.0 1023.0 0.0
20/05:30am 10.7 3.5 5.7 71 2.3 NE 33 41 18 22 1023.2 1023.2 0.0
20/05:00am 10.7 3.3 5.0 68 2.6 NE 33 39 18 21 1023.8 1023.8 0.0
20/04:30am 10.6 3.9 5.8 72 2.2 NE 30 35 16 19 1024.4 1024.4 0.0
20/04:00am 10.8 4.3 6.4 74 2.1 NE 30 35 16 19 1024.2 1024.2 0.0
20/03:30am 10.7 4.6 6.5 75 2.0 NE 28 33 15 18 1024.5 1024.5 0.0
20/03:00am 10.4 3.8 6.0 74 2.0 NE 30 35 16 19 1024.7 1024.7 0.0
20/02:30am 10.5 3.9 6.1 74 2.0 NE 30 35 16 19 1025.0 1025.0 0.0
20/02:00am 10.6 3.9 5.8 72 2.2 NE 30 33 16 18 1025.5 1025.5 0.0
20/01:30am 10.6 3.4 5.2 69 2.5 NE 32 37 17 20 1025.2 1025.2 0.0
20/01:00am 10.8 5.2 5.6 70 2.4 NE 24 30 13 16 1025.7 1025.7 0.0
20/12:30am 10.6 5.9 6.0 73 2.1 NE 20 26 11 14 1026.2 1026.2 0.0
20/12:00am 10.7 6.1 6.3 74 2.0 NE 20 26 11 14 1026.6 1026.6 0.0
 
Date/Time
CST
Temp
°C
App
Temp
°C
Dew
Point
°C
Rel
Hum
%
Delta-T
°C
Wind Press
QNH
hPa
Press
MSL
hPa
Rain since
9am
mm
Dir  Spd
km/h
Gust
km/h
Spd
kts
Gust
kts
19/11:30pm 10.8 6.4 6.4 74 2.1 NE 19 22 10 12 1026.8 1026.8 0.0
19/11:00pm 11.0 6.5 6.0 71 2.3 NE 19 22 10 12 1027.0 1027.0 0.0
19/10:30pm 11.0 6.7 5.3 68 2.6 NE 17 22 9 12 1027.1 1027.1 0.0
19/10:00pm 11.0 7.0 5.1 67 2.7 NE 15 20 8 11 1027.5 1027.5 0.0
19/09:30pm 10.9 6.5 4.8 66 2.7 ENE 17 22 9 12 1027.5 1027.5 0.0
19/09:00pm 11.0 7.0 5.1 67 2.7 ENE 15 20 8 11 1027.6 1027.6 0.0
19/08:30pm 10.9 7.4 5.4 69 2.5 ENE 13 17 7 9 1027.8 1027.8 0.0
19/08:00pm 10.9 7.9 5.9 71 2.3 ENE 11 17 6 9 1027.9 1027.9 0.0
19/07:30pm 10.7 7.6 5.5 70 2.4 ENE 11 15 6 8 1028.2 1028.2 0.0
19/07:00pm 10.8 7.8 5.8 71 2.3 ENE 11 15 6 8 1028.1 1028.1 0.0
19/06:30pm 10.9 8.6 5.9 71 2.3 ENE 7 13 4 7 1028.2 1028.2 0.0
19/06:00pm 11.2 9.0 6.1 71 2.4 ENE 7 15 4 8 1028.2 1028.2 0.0
19/05:30pm 11.3 8.9 4.3 62 3.1 E 6 9 3 5 1028.2 1028.2 0.0
19/05:00pm 11.7 9.4 4.7 62 3.2 E 6 9 3 5 1027.9 1027.9 0.0
19/04:30pm 11.9 9.5 4.4 60 3.4 ESE 6 9 3 5 1028.0 1028.0 0.0
19/04:00pm 12.3 9.5 5.2 62 3.3 ENE 9 13 5 7 1027.8 1027.8 0.0
19/03:30pm 12.6 10.3 5.5 62 3.3 E 7 9 4 5 1027.7 1027.7 0.0
19/03:00pm 12.7 9.6 5.4 61 3.4 E 11 15 6 8 1027.6 1027.6 0.0
19/02:30pm 13.0 10.0 5.9 62 3.3 E 11 17 6 9 1028.0 1028.0 0.0
19/02:00pm 13.2 10.3 4.9 57 3.8 ESE 9 13 5 7 1028.2 1028.2 0.0
19/01:30pm 13.2 10.3 4.9 57 3.8 SE 9 13 5 7 1028.5 1028.5 0.0
19/01:00pm 13.0 10.4 4.2 55 4.0 SE 7 11 4 6 1028.9 1028.9 0.0
19/12:30pm 11.9 9.4 4.6 61 3.3 SSE 7 11 4 6 1029.4 1029.4 0.0
19/12:00pm 11.9 8.4 5.3 64 3.0 SSE 13 17 7 9 1029.6 1029.6 0.0
19/11:30am 12.1 9.2 4.6 60 3.4 SSE 9 13 5 7 1029.9 1029.9 0.0
19/11:00am 12.0 8.6 4.2 59 3.5 SSE 11 15 6 8 1030.0 1030.0 0.0
19/10:30am 12.3 8.7 5.2 62 3.3 S 13 19 7 10 1030.1 1030.1 0.0
19/10:00am 11.8 8.5 4.8 62 3.2 S 11 13 6 7 1030.1 1030.1 0.0
19/09:30am 11.6 8.9 5.5 66 2.8 SW 9 17 5 9 1030.2 1030.2 0.0
19/09:00am 11.5 7.9 4.9 64 3.0 S 13 17 7 9 1030.0 1030.0 1.0
19/08:30am 11.2 7.2 4.9 65 2.8 S 15 19 8 10 1029.7 1029.7 1.0
19/08:00am 10.7 7.2 5.3 69 2.5 SSE 13 17 7 9 1029.5 1029.5 1.0
19/07:30am 10.2 5.0 5.6 73 2.1 SSE 22 32 12 17 1028.9 1028.9 1.0
19/07:00am 10.7 7.0 6.1 73 2.1 SSW 15 28 8 15 1028.7 1028.7 1.0
19/06:30am 10.8 5.7 5.8 71 2.3 SSE 22 30 12 16 1028.1 1028.1 1.0
19/06:00am 9.7 5.5 5.9 77 1.7 S 17 24 9 13 1027.9 1027.9 1.0
19/05:30am 10.6 4.7 6.0 73 2.1 S 26 39 14 21 1027.2 1027.2 0.6
19/05:00am 11.1 5.8 2.9 57 3.6 SSW 20 30 11 16 1027.3 1027.3 0.6
19/04:30am 11.0 5.4 3.3 59 3.4 SSW 22 32 12 17 1027.0 1027.0 0.6
19/04:00am 10.9 5.3 3.2 59 3.4 SSW 22 30 12 16 1026.7 1026.7 0.6
19/03:30am 11.0 5.4 3.5 60 3.3 SSW 22 30 12 16 1026.4 1026.4 0.6
19/03:00am 11.4 6.6 4.6 63 3.1 S 19 30 10 16 1026.5 1026.5 0.6
19/02:30am 11.3 6.4 5.0 65 2.9 S 20 35 11 19 1026.5 1026.5 0.6
19/02:00am 11.1 5.0 2.7 56 3.6 SSW 24 30 13 16 1026.6 1026.6 0.6
19/01:30am 11.0 6.2 4.5 64 2.9 SSW 19 28 10 15 1026.7 1026.7 0.6
19/01:00am 11.2 5.2 3.3 58 3.5 SSW 24 30 13 16 1026.6 1026.6 0.6
19/12:30am 11.0 5.5 4.2 63 3.0 SSW 22 28 12 15 1026.6 1026.6 0.6
19/12:00am 11.1 5.1 3.4 59 3.4 SSW 24 32 13 17 1026.5 1026.5 0.6
 
Date/Time
CST
Temp
°C
App
Temp
°C
Dew
Point
°C
Rel
Hum
%
Delta-T
°C
Wind Press
QNH
hPa
Press
MSL
hPa
Rain since
9am
mm
Dir  Spd
km/h
Gust
km/h
Spd
kts
Gust
kts
18/11:30pm 11.2 5.3 3.7 60 3.3 SSW 24 33 13 18 1026.4 1026.4 0.6
18/11:00pm 11.5 6.1 4.5 62 3.2 SSW 22 35 12 19 1026.4 1026.4 0.6
18/10:30pm 11.4 5.7 4.8 64 3.0 S 24 37 13 20 1026.5 1026.5 0.6
18/10:00pm 10.9 3.7 5.2 68 2.6 SSW 32 44 17 24 1026.2 1026.2 0.6
18/09:30pm 10.6 3.6 6.2 74 2.0 SSW 32 41 17 22 1026.2 1026.2 0.6
18/09:00pm 11.3 4.3 6.0 70 2.5 SSW 32 39 17 21 1025.9 1025.9 0.6
18/08:30pm 11.5 4.0 6.4 71 2.4 SSW 35 43 19 23 1025.6 1025.6 0.6
18/08:00pm 11.5 4.4 5.6 67 2.7 SW 32 43 17 23 1025.4 1025.4 0.6
18/07:30pm 11.1 3.3 6.8 75 2.0 SW 37 52 20 28 1025.2 1025.2 0.6
18/07:00pm 11.2 2.2 6.3 72 2.3 SW 43 54 23 29 1024.7 1024.7 0.2
18/06:30pm 11.5 3.3 6.4 71 2.4 SW 39 46 21 25 1024.5 1024.5 0.2
18/06:00pm 11.6 3.9 5.5 66 2.8 SW 35 50 19 27 1024.2 1024.2 0.2
18/05:30pm 11.6 4.4 5.7 67 2.7 SW 33 48 18 26 1023.7 1023.7 0.2
18/05:00pm 11.7 3.3 5.6 66 2.8 SW 39 50 21 27 1023.5 1023.5 0.2
18/04:30pm 11.2 2.6 6.3 72 2.3 SW 41 61 22 33 1023.3 1023.3 0.2
18/04:21pm 11.7 2.7 6.4 70 2.5 SW 43 61 23 33 1022.8 1022.8 0.2
18/04:00pm 12.3 3.7 6.6 68 2.7 SW 41 54 22 29 1023.1 1023.1 0.2
18/03:34pm 12.2 3.3 6.7 69 2.6 SW 43 65 23 35 1022.6 1022.6 0.2
18/03:30pm 12.3 3.1 5.5 63 3.2 SW 43 54 23 29 1022.7 1022.7 0.2
18/03:00pm 12.8 5.8 5.9 63 3.2 SW 32 44 17 24 1022.6 1022.6 0.2
18/02:30pm 12.2 3.0 5.6 64 3.1 SW 43 56 23 30 1022.4 1022.4 0.2
18/02:00pm 12.5 3.1 4.5 58 3.7 SW 43 59 23 32 1022.2 1022.2 0.2
18/01:30pm 12.1 3.0 7.0 71 2.4 SW 44 59 24 32 1022.3 1022.3 0.2
18/01:08pm 12.9 4.0 5.1 59 3.6 SW 41 61 22 33 1021.9 1021.9 0.2
18/01:00pm 13.0 4.2 5.7 61 3.4 SW 41 56 22 30 1022.0 1022.0 0.2
18/12:30pm 12.9 3.8 6.0 63 3.3 SW 43 57 23 31 1022.1 1022.1 0.2
18/12:00pm 12.4 2.9 4.9 60 3.4 SW 44 63 24 34 1022.1 1022.1 0.2
18/11:55am 12.5 3.1 4.5 58 3.7 SW 43 63 23 34 1021.9 1021.9 0.2
18/11:30am 11.0 4.0 6.7 75 2.0 WSW 33 50 18 27 1022.2 1022.2 0.2
18/11:00am 11.5 3.6 6.4 71 2.4 WSW 37 63 20 34 1021.9 1021.9 0.0
18/10:32am 11.8 4.3 6.3 69 2.6 SW 35 56 19 30 1021.7 1021.7 0.0
18/10:30am 11.5 3.5 5.8 68 2.6 SW 37 56 20 30 1021.6 1021.6 0.0
18/10:09am 11.5 2.7 5.6 67 2.7 WSW 41 61 22 33 1021.4 1021.4 0.0

Other Formats:

Comma delimited format used in spreadsheet applications
http://www.bom.gov.au/fwo/IDS60801/IDS60801.94822.axf

JavaScript Object Notation format (JSON) in row-major order
http://www.bom.gov.au/fwo/IDS60801/IDS60801.94822.json